Time;durP1;ratioP1;P1;durP2;ratioP2;P2;SDS_P1;SDS_P2;PMS_P1;PMS_P2;Temp;Humidity;BMP_temperature;BMP_pressure;BME280_temperature;BME280_humidity;BME280_pressure;Samples;Min_cycle;Max_cycle;Signal;HPM_P1;HPM_P2
2021/08/31 00:01:02;;;;;;;3.40;1.90;;;14.80;99.90;;;;;;6341865;28;20467;-66
2021/08/31 00:04:05;;;;;;;3.07;2.53;;;14.90;99.90;;;;;;6340419;27;20956;-66
2021/08/31 00:07:10;;;;;;;2.23;1.83;;;14.90;99.90;;;;;;6340793;28;20474;-66
2021/08/31 00:10:13;;;;;;;1.50;1.40;;;14.80;99.90;;;;;;6341322;28;20802;-66
2021/08/31 00:13:16;;;;;;;3.73;1.70;;;14.80;99.90;;;;;;6341359;28;20548;-66
2021/08/31 00:16:20;;;;;;;2.33;2.13;;;14.70;99.90;;;;;;6335776;28;20807;-66
2021/08/31 00:19:23;;;;;;;1.90;1.80;;;14.70;99.90;;;;;;6340796;27;20792;-67
2021/08/31 00:22:27;;;;;;;1.93;1.83;;;14.70;99.90;;;;;;6338868;28;20483;-66
2021/08/31 00:25:31;;;;;;;3.20;2.00;;;14.70;99.90;;;;;;6337218;28;20471;-66
2021/08/31 00:28:34;;;;;;;2.17;1.97;;;14.70;99.90;;;;;;6341274;28;20467;-66
2021/08/31 00:31:37;;;;;;;2.70;2.03;;;14.70;99.90;;;;;;6340304;28;20473;-67
2021/08/31 00:34:41;;;;;;;2.27;1.87;;;14.60;99.90;;;;;;6339656;28;20463;-66
2021/08/31 00:37:45;;;;;;;2.20;2.07;;;14.60;99.90;;;;;;6341252;28;20468;-66
2021/08/31 00:40:48;;;;;;;2.53;2.33;;;14.70;99.90;;;;;;6336283;28;20471;-66
2021/08/31 00:43:52;;;;;;;2.27;1.80;;;14.60;99.90;;;;;;6340691;28;20463;-67
2021/08/31 00:46:56;;;;;;;2.23;1.93;;;14.60;99.90;;;;;;6339625;28;20499;-66
2021/08/31 00:49:59;;;;;;;2.27;2.03;;;14.70;99.90;;;;;;6339257;27;20475;-67
2021/08/31 00:53:04;;;;;;;2.53;2.20;;;14.70;99.90;;;;;;6339783;28;20830;-67
2021/08/31 00:56:09;;;;;;;2.53;2.10;;;14.70;99.90;;;;;;6338342;28;20452;-68
2021/08/31 00:59:13;;;;;;;2.53;2.20;;;14.70;99.90;;;;;;6332026;28;20479;-68
2021/08/31 01:02:16;;;;;;;2.67;2.47;;;14.70;99.90;;;;;;6340048;28;20451;-67
2021/08/31 01:05:20;;;;;;;2.40;2.10;;;14.60;99.90;;;;;;6339005;28;20471;-67
2021/08/31 01:08:24;;;;;;;2.13;1.93;;;14.60;99.90;;;;;;6338003;28;20925;-67
2021/08/31 01:11:28;;;;;;;2.10;1.80;;;14.60;99.90;;;;;;6339683;27;20466;-68
2021/08/31 01:14:31;;;;;;;3.23;2.13;;;14.60;99.90;;;;;;6339696;28;20529;-68
2021/08/31 01:17:35;;;;;;;2.40;2.20;;;14.50;99.90;;;;;;6334508;28;20464;-67
2021/08/31 01:20:38;;;;;;;2.10;1.90;;;14.50;99.90;;;;;;6327631;28;20480;-68
2021/08/31 01:23:46;;;;;;;2.70;1.80;;;14.40;99.90;;;;;;6326860;28;20935;-67
2021/08/31 01:26:51;;;;;;;2.10;1.70;;;14.40;99.90;;;;;;6326836;28;20476;-67
2021/08/31 01:29:55;;;;;;;2.47;2.20;;;14.30;99.90;;;;;;6326800;28;20470;-67
2021/08/31 01:32:59;;;;;;;3.30;2.20;;;14.30;99.90;;;;;;6326653;28;20483;-67
2021/08/31 01:36:14;;;;;;;3.93;2.47;;;14.20;99.90;;;;;;6326845;28;20471;-67
2021/08/31 01:39:17;;;;;;;2.27;2.07;;;14.30;99.90;;;;;;6326733;28;20481;-67
2021/08/31 01:42:22;;;;;;;3.93;2.40;;;14.20;99.90;;;;;;6326713;28;20582;-67
2021/08/31 01:45:25;;;;;;;1.50;1.40;;;14.20;99.90;;;;;;6326320;28;20462;-66
2021/08/31 01:48:28;;;;;;;3.43;1.93;;;14.10;99.90;;;;;;6326605;28;20480;-67
2021/08/31 01:51:32;;;;;;;2.03;1.80;;;14.10;99.90;;;;;;6326460;28;20449;-67
2021/08/31 01:54:35;;;;;;;2.10;1.57;;;14.10;99.90;;;;;;6326736;28;20440;-68
2021/08/31 01:57:39;;;;;;;4.97;1.93;;;14.10;99.90;;;;;;6325927;28;20937;-67
2021/08/31 02:00:42;;;;;;;3.00;2.50;;;14.10;99.90;;;;;;6326246;28;20471;-67
2021/08/31 02:03:46;;;;;;;2.60;1.70;;;14.10;99.90;;;;;;6326024;28;20816;-67
2021/08/31 02:06:49;;;;;;;2.00;1.80;;;14.20;99.90;;;;;;6326288;28;20473;-67
2021/08/31 02:09:52;;;;;;;4.70;1.80;;;14.20;99.90;;;;;;6325975;28;20479;-67
2021/08/31 02:12:57;;;;;;;1.70;1.60;;;14.20;99.90;;;;;;6326171;28;20480;-67
2021/08/31 02:16:00;;;;;;;3.37;1.83;;;14.10;99.90;;;;;;6325790;28;20809;-67
2021/08/31 02:19:03;;;;;;;2.37;1.87;;;14.10;99.90;;;;;;6325414;28;20573;-67
2021/08/31 02:22:06;;;;;;;2.07;1.87;;;14.00;99.90;;;;;;6325382;28;20463;-68
2021/08/31 02:25:10;;;;;;;2.60;1.87;;;13.90;99.90;;;;;;6325895;28;20474;-67
2021/08/31 02:28:14;;;;;;;5.13;2.60;;;13.80;99.90;;;;;;6325671;28;20475;-67
2021/08/31 02:31:18;;;;;;;2.20;2.00;;;13.80;99.90;;;;;;6325487;28;20949;-66
2021/08/31 02:34:21;;;;;;;2.70;2.13;;;13.80;99.90;;;;;;6325419;28;20484;-67
2021/08/31 02:37:24;;;;;;;2.23;1.70;;;13.90;99.90;;;;;;6325395;28;20491;-67
2021/08/31 02:40:27;;;;;;;2.90;1.60;;;13.90;99.90;;;;;;6325437;28;20922;-67
2021/08/31 02:43:32;;;;;;;2.33;1.57;;;14.00;99.90;;;;;;6325236;28;20525;-67
2021/08/31 02:46:35;;;;;;;2.90;1.90;;;14.00;99.90;;;;;;6324992;28;20986;-67
2021/08/31 02:49:38;;;;;;;3.03;1.80;;;14.00;99.90;;;;;;6325273;28;20501;-67
2021/08/31 02:52:41;;;;;;;2.63;2.43;;;14.00;99.90;;;;;;6324836;28;20472;-67
2021/08/31 02:55:44;;;;;;;3.63;2.10;;;14.00;99.90;;;;;;6325001;28;20775;-67
2021/08/31 02:58:49;;;;;;;2.30;1.83;;;13.80;99.90;;;;;;6324443;28;20491;-67
2021/08/31 03:02:07;;;;;;;2.10;1.90;;;13.90;99.90;;;;;;6324816;28;20475;-67
2021/08/31 03:05:12;;;;;;;2.53;1.90;;;13.90;99.90;;;;;;6324783;28;20461;-67
2021/08/31 03:08:15;;;;;;;2.63;2.20;;;13.90;99.90;;;;;;6314980;28;20492;-67
2021/08/31 03:11:18;;;;;;;2.70;1.67;;;13.90;99.90;;;;;;6324723;28;20472;-67
2021/08/31 03:14:22;;;;;;;2.77;2.13;;;13.80;99.90;;;;;;6324551;28;20469;-67
2021/08/31 03:17:26;;;;;;;6.10;3.13;;;13.70;99.90;;;;;;6324329;28;20477;-67
2021/08/31 03:20:29;;;;;;;2.30;1.77;;;13.60;99.90;;;;;;6324284;28;20905;-67
2021/08/31 03:23:32;;;;;;;4.13;2.53;;;13.50;99.90;;;;;;6324163;28;20787;-67
2021/08/31 03:26:35;;;;;;;2.60;2.20;;;13.50;99.90;;;;;;6324336;28;20988;-67
2021/08/31 03:29:40;;;;;;;3.50;2.20;;;13.40;99.90;;;;;;6324165;28;20468;-67
2021/08/31 03:32:43;;;;;;;2.83;2.53;;;13.50;99.90;;;;;;6324381;28;20961;-68
2021/08/31 03:35:46;;;;;;;3.17;2.87;;;13.40;99.90;;;;;;6324271;28;20486;-67
2021/08/31 03:38:49;;;;;;;3.87;2.50;;;13.50;99.90;;;;;;6324054;28;20472;-67
2021/08/31 03:41:52;;;;;;;2.40;2.17;;;13.40;99.90;;;;;;6336022;28;20993;-67
2021/08/31 03:45:00;;;;;;;3.13;2.67;;;13.40;99.90;;;;;;6349441;28;20463;-66
2021/08/31 03:48:03;;;;;;;3.60;1.63;;;13.50;99.90;;;;;;6349137;28;20482;-67
2021/08/31 03:51:07;;;;;;;3.20;2.40;;;13.50;99.90;;;;;;6349194;28;21005;-69
2021/08/31 03:54:10;;;;;;;7.10;2.03;;;13.50;99.90;;;;;;6342438;28;20503;-66
2021/08/31 03:57:13;;;;;;;5.07;2.20;;;13.50;99.90;;;;;;6338633;28;20471;-66
2021/08/31 04:00:18;;;;;;;3.43;2.37;;;13.50;99.90;;;;;;6348898;28;20490;-66
2021/08/31 04:03:21;;;;;;;2.70;2.20;;;13.50;99.90;;;;;;6349335;28;20544;-67
2021/08/31 04:06:24;;;;;;;2.37;2.17;;;13.50;99.90;;;;;;6349011;28;20987;-66
2021/08/31 04:09:28;;;;;;;3.37;2.90;;;13.50;99.90;;;;;;6343176;28;20506;-60
2021/08/31 04:12:31;;;;;;;3.20;2.37;;;13.40;99.90;;;;;;6349303;28;20897;-60
2021/08/31 04:15:35;;;;;;;4.73;2.63;;;13.40;99.90;;;;;;6348821;28;20450;-67
2021/08/31 04:18:39;;;;;;;3.80;2.80;;;13.30;99.90;;;;;;6348885;28;20966;-62
2021/08/31 04:21:42;;;;;;;3.93;3.17;;;13.30;99.90;;;;;;6349048;28;20436;-62
2021/08/31 04:24:45;;;;;;;3.83;2.47;;;13.40;99.90;;;;;;6348744;28;20446;-63
2021/08/31 04:27:48;;;;;;;4.47;3.30;;;13.30;99.90;;;;;;6348847;28;20467;-63
2021/08/31 04:30:53;;;;;;;5.57;3.00;;;13.40;99.90;;;;;;6349136;28;20463;-63
2021/08/31 04:33:56;;;;;;;5.00;2.50;;;13.40;99.90;;;;;;6349098;28;20474;-62
2021/08/31 04:36:59;;;;;;;3.37;3.07;;;13.40;99.90;;;;;;6348835;28;20479;-66
2021/08/31 04:40:03;;;;;;;4.63;3.03;;;13.30;99.90;;;;;;6348661;28;20761;-66
2021/08/31 04:43:06;;;;;;;6.50;3.00;;;13.40;99.90;;;;;;6350072;28;20475;-66
2021/08/31 04:46:10;;;;;;;6.20;2.70;;;13.50;99.90;;;;;;6353631;28;20463;-62
2021/08/31 04:49:14;;;;;;;4.40;2.80;;;13.50;99.90;;;;;;6353192;28;20468;-62
2021/08/31 04:52:17;;;;;;;3.13;2.77;;;13.60;99.90;;;;;;6353089;28;20540;-62
2021/08/31 04:55:21;;;;;;;3.57;2.67;;;13.70;99.90;;;;;;6353244;27;20474;-66
2021/08/31 04:58:24;;;;;;;4.47;4.07;;;13.70;99.90;;;;;;6353371;27;20601;-66
2021/08/31 05:01:28;;;;;;;3.23;2.57;;;13.80;99.90;;;;;;6352950;28;20524;-59
2021/08/31 05:04:34;;;;;;;6.27;3.27;;;13.90;99.90;;;;;;6352915;28;20467;-60
2021/08/31 05:07:39;;;;;;;4.87;3.23;;;14.00;99.90;;;;;;6352532;28;20809;-59
2021/08/31 05:10:42;;;;;;;3.80;2.17;;;14.10;99.90;;;;;;6352887;28;20455;-61
2021/08/31 05:13:45;;;;;;;4.80;2.10;;;14.20;99.90;;;;;;6348607;27;20459;-62
2021/08/31 05:16:50;;;;;;;3.93;2.20;;;14.30;99.90;;;;;;6352318;28;20482;-63
2021/08/31 05:19:53;;;;;;;2.50;2.30;;;14.50;99.90;;;;;;6352757;28;20471;-63
2021/08/31 05:22:56;;;;;;;3.77;1.80;;;14.60;99.90;;;;;;6352392;28;20471;-63
2021/08/31 05:25:59;;;;;;;4.93;2.30;;;14.70;99.90;;;;;;6352245;28;20991;-63
2021/08/31 05:29:02;;;;;;;3.30;2.33;;;14.80;99.90;;;;;;6352423;27;20536;-63
2021/08/31 05:32:08;;;;;;;2.50;2.30;;;14.90;99.90;;;;;;6352487;28;20471;-63
2021/08/31 05:35:12;;;;;;;2.40;1.93;;;15.00;99.90;;;;;;6352259;28;20500;-63
2021/08/31 05:38:15;;;;;;;2.83;2.50;;;15.00;99.90;;;;;;6352139;28;20984;-63
2021/08/31 05:41:18;;;;;;;2.80;2.30;;;15.20;99.90;;;;;;6352218;28;20464;-63
2021/08/31 05:44:21;;;;;;;3.67;2.37;;;15.30;99.90;;;;;;6352084;28;20463;-63
2021/08/31 05:47:26;;;;;;;2.93;1.80;;;15.40;99.90;;;;;;6351739;28;20467;-62
2021/08/31 05:50:29;;;;;;;3.30;2.10;;;15.60;99.90;;;;;;6351770;28;20780;-63
2021/08/31 05:53:32;;;;;;;3.83;2.60;;;15.70;99.90;;;;;;6351609;28;20467;-64
2021/08/31 05:56:35;;;;;;;3.93;2.20;;;15.70;99.90;;;;;;6350570;28;20471;-63
2021/08/31 05:59:40;;;;;;;2.17;1.80;;;16.00;99.90;;;;;;6351467;27;20536;-63
2021/08/31 06:02:44;;;;;;;3.20;1.87;;;16.70;99.90;;;;;;6351647;28;20485;-63
2021/08/31 06:05:48;;;;;;;6.77;2.20;;;17.20;99.90;;;;;;6351386;28;20520;-63
2021/08/31 06:08:51;;;;;;;2.67;1.77;;;17.40;99.90;;;;;;6351379;28;21007;-67
2021/08/31 06:11:55;;;;;;;2.20;2.00;;;17.30;99.90;;;;;;6351219;28;20471;-67
2021/08/31 06:14:58;;;;;;;2.60;1.70;;;17.10;99.90;;;;;;6351100;28;20478;-67
2021/08/31 06:18:03;;;;;;;5.07;1.87;;;16.80;99.90;;;;;;6351210;28;20479;-66
2021/08/31 06:21:07;;;;;;;2.30;1.77;;;16.60;99.90;;;;;;6346254;28;20863;-67
2021/08/31 06:24:10;;;;;;;5.47;2.53;;;16.50;99.90;;;;;;6351115;28;20486;-67
2021/08/31 06:27:13;;;;;;;4.40;2.20;;;16.50;99.90;;;;;;6350773;28;20790;-67
2021/08/31 06:30:16;;;;;;;3.47;1.87;;;16.50;99.90;;;;;;6350911;28;20487;-67
2021/08/31 06:33:23;;;;;;;3.57;2.17;;;16.40;99.90;;;;;;6350734;28;20478;-65
2021/08/31 06:36:27;;;;;;;1.90;1.80;;;16.40;99.90;;;;;;6350487;28;20915;-64
2021/08/31 06:39:30;;;;;;;4.80;1.90;;;16.50;99.90;;;;;;6350295;28;20451;-65
2021/08/31 06:42:33;;;;;;;4.63;3.20;;;16.40;99.90;;;;;;6350765;28;20440;-65
2021/08/31 06:45:36;;;;;;;3.97;3.63;;;16.50;99.90;;;;;;6350482;28;20476;-64
2021/08/31 06:48:42;;;;;;;5.63;4.20;;;16.50;99.90;;;;;;6350010;28;20866;-66
2021/08/31 06:51:45;;;;;;;6.43;4.17;;;16.40;99.90;;;;;;6349974;28;20462;-66
2021/08/31 06:54:48;;;;;;;5.13;3.13;;;16.40;99.90;;;;;;6350447;28;20474;-66
2021/08/31 06:57:51;;;;;;;4.23;3.77;;;16.50;99.90;;;;;;6350272;28;20474;-66
2021/08/31 07:00:55;;;;;;;8.37;3.90;;;16.60;99.90;;;;;;6349745;28;20854;-66
2021/08/31 07:04:00;;;;;;;5.30;3.57;;;16.80;99.90;;;;;;6350347;28;20486;-66
2021/08/31 07:07:03;;;;;;;5.13;3.50;;;17.00;99.90;;;;;;6349083;28;20949;-66
2021/08/31 07:10:07;;;;;;;6.43;3.63;;;17.20;99.90;;;;;;6349933;28;20486;-66
2021/08/31 07:13:13;;;;;;;4.43;3.00;;;17.30;99.90;;;;;;6349856;28;20969;-67
2021/08/31 07:16:16;;;;;;;9.17;5.00;;;17.20;99.90;;;;;;6350120;28;20554;-67
2021/08/31 07:19:21;;;;;;;4.70;3.97;;;17.20;99.90;;;;;;6349766;28;20471;-67
2021/08/31 07:22:24;;;;;;;6.37;3.20;;;17.20;99.90;;;;;;6340234;28;20811;-68
2021/08/31 07:25:27;;;;;;;6.20;4.60;;;17.20;99.90;;;;;;6349773;28;20482;-67
2021/08/31 07:28:30;;;;;;;12.33;4.57;;;17.10;99.90;;;;;;6349551;28;20478;-67
2021/08/31 07:31:54;;;;;;;7.30;4.73;;;17.10;99.90;;;;;;6349901;28;20540;-66
2021/08/31 07:34:58;;;;;;;10.23;5.13;;;16.90;99.90;;;;;;6349382;28;20806;-66
2021/08/31 07:38:01;;;;;;;6.80;4.13;;;17.00;99.90;;;;;;6349081;28;20809;-66
2021/08/31 07:41:05;;;;;;;6.83;4.60;;;17.10;99.90;;;;;;6349449;28;20463;-67
2021/08/31 07:44:08;;;;;;;6.90;4.27;;;17.30;99.90;;;;;;6349183;28;20503;-67
2021/08/31 07:47:13;;;;;;;9.30;4.90;;;17.50;99.90;;;;;;6349414;28;20484;-67
2021/08/31 07:50:37;;;;;;;24.40;6.83;;;17.70;99.90;;;;;;6349212;28;20575;-67
2021/08/31 07:53:41;;;;;;;8.40;4.70;;;17.90;99.90;;;;;;6348914;28;20464;-67
2021/08/31 07:56:44;;;;;;;13.40;4.97;;;18.00;99.90;;;;;;6348983;28;20475;-68
2021/08/31 07:59:47;;;;;;;6.53;4.97;;;18.10;99.90;;;;;;6349288;28;21016;-67
2021/08/31 08:02:50;;;;;;;7.87;4.87;;;18.20;99.90;;;;;;6348871;28;20478;-67
2021/08/31 08:05:55;;;;;;;4.30;3.90;;;18.50;99.90;;;;;;6323974;28;20483;-66
2021/08/31 08:09:02;;;;;;;10.37;5.30;;;19.10;99.90;;;;;;6329345;28;20488;-65
2021/08/31 08:12:05;;;;;;;7.80;5.10;;;19.70;99.50;;;;;;6299654;28;20704;-66
2021/08/31 08:15:09;;;;;;;8.03;5.23;;;20.60;98.30;;;;;;6307565;28;20229;-68
2021/08/31 08:18:12;;;;;;;8.27;4.80;;;21.10;96.80;;;;;;6296685;28;20231;-66
2021/08/31 08:21:17;;;;;;;10.00;6.50;;;21.30;96.00;;;;;;6301263;28;20573;-71
2021/08/31 08:24:20;;;;;;;4.37;3.90;;;21.20;95.20;;;;;;6301020;28;20673;-67
2021/08/31 08:27:24;;;;;;;4.50;3.03;;;21.00;94.70;;;;;;6297772;28;20245;-66
2021/08/31 08:30:27;;;;;;;3.10;2.77;;;20.90;94.30;;;;;;6339745;27;20229;-66
2021/08/31 08:33:32;;;;;;;4.07;2.27;;;20.80;93.90;;;;;;6338100;28;20247;-66
2021/08/31 08:36:36;;;;;;;3.23;2.50;;;20.70;93.50;;;;;;6336600;28;20532;-66
2021/08/31 08:39:39;;;;;;;6.73;2.87;;;20.60;93.20;;;;;;6339575;28;20201;-66
2021/08/31 08:42:43;;;;;;;3.97;2.00;;;20.60;93.00;;;;;;6334848;28;20199;-65
2021/08/31 08:45:47;;;;;;;4.40;2.27;;;20.80;92.90;;;;;;6336641;28;20537;-65
2021/08/31 08:48:50;;;;;;;4.73;2.67;;;20.70;92.90;;;;;;6338023;28;20240;-66
2021/08/31 08:51:58;;;;;;;4.23;2.10;;;20.90;92.90;;;;;;6338123;28;20238;-66
2021/08/31 08:55:02;;;;;;;2.40;2.07;;;20.90;92.90;;;;;;6334066;28;20752;-66
2021/08/31 08:58:07;;;;;;;2.17;1.80;;;21.00;92.30;;;;;;6339118;28;20278;-67
2021/08/31 09:01:12;;;;;;;5.77;3.13;;;20.80;91.80;;;;;;6337451;28;20564;-66
2021/08/31 09:04:17;;;;;;;5.27;3.80;;;20.60;93.40;;;;;;6337801;28;20230;-66
2021/08/31 09:07:23;;;;;;;5.00;4.20;;;20.90;93.60;;;;;;6337922;28;20667;-66
2021/08/31 09:10:26;;;;;;;5.10;2.90;;;21.50;92.70;;;;;;6334779;28;20226;-66
2021/08/31 09:13:30;;;;;;;6.00;3.07;;;23.40;90.60;;;;;;6338485;28;20229;-65
2021/08/31 09:16:33;;;;;;;4.63;4.13;;;24.10;84.60;;;;;;6337929;28;20872;-66
2021/08/31 09:19:39;;;;;;;10.00;4.90;;;24.30;83.00;;;;;;6338256;28;20222;-66
2021/08/31 09:22:53;;;;;;;9.43;3.93;;;24.10;84.60;;;;;;6325261;28;20563;-65
2021/08/31 09:25:58;;;;;;;11.43;4.20;;;24.00;84.40;;;;;;6325261;28;20237;-65
2021/08/31 09:29:05;;;;;;;9.50;6.43;;;24.10;84.30;;;;;;6315145;28;20245;-66
2021/08/31 09:32:12;;;;;;;5.90;3.50;;;24.70;81.70;;;;;;6324434;28;20242;-66
2021/08/31 09:35:16;;;;;;;7.40;4.17;;;25.10;79.70;;;;;;6324774;28;20226;-65
2021/08/31 09:38:21;;;;;;;7.07;3.83;;;24.80;79.20;;;;;;6324504;28;20241;-65
2021/08/31 09:41:36;;;;;;;7.83;3.60;;;24.60;79.40;;;;;;6324400;28;20225;-65
2021/08/31 09:44:40;;;;;;;7.50;4.13;;;24.10;79.50;;;;;;6324505;28;20231;-65
2021/08/31 09:47:47;;;;;;;9.03;3.80;;;23.90;80.10;;;;;;6324336;28;20226;-65
2021/08/31 09:50:52;;;;;;;10.73;5.20;;;24.20;77.70;;;;;;6324617;28;20237;-66
2021/08/31 09:53:56;;;;;;;9.90;7.80;;;25.00;76.70;;;;;;6324205;28;20227;-66
2021/08/31 09:56:59;;;;;;;8.30;5.93;;;26.10;73.70;;;;;;6324055;28;20687;-65
2021/08/31 10:00:13;;;;;;;9.80;3.40;;;26.90;69.00;;;;;;6324117;28;20248;-65
2021/08/31 10:03:17;;;;;;;4.70;2.23;;;27.60;64.40;;;;;;6323996;28;20245;-65
2021/08/31 10:06:20;;;;;;;7.00;3.13;;;28.00;61.20;;;;;;6323960;28;20281;-66
2021/08/31 10:09:25;;;;;;;2.90;2.00;;;28.10;59.60;;;;;;6323867;28;20237;-66
2021/08/31 10:12:30;;;;;;;2.90;2.17;;;28.10;57.20;;;;;;6323991;28;20240;-65
2021/08/31 10:15:36;;;;;;;2.70;2.27;;;27.90;57.70;;;;;;6304984;28;20214;-66
2021/08/31 10:18:39;;;;;;;1.70;1.50;;;27.70;57.10;;;;;;6298997;28;20226;-65
2021/08/31 10:21:44;;;;;;;2.97;2.43;;;27.10;57.40;;;;;;6297945;28;20616;-65
2021/08/31 10:24:50;;;;;;;2.20;1.60;;;26.60;57.70;;;;;;6331469;28;20208;-66
2021/08/31 10:27:54;;;;;;;1.40;0.97;;;26.30;58.50;;;;;;6335917;28;20245;-66
2021/08/31 10:30:58;;;;;;;1.40;1.10;;;26.40;58.50;;;;;;6330234;28;20232;-66
2021/08/31 10:34:01;;;;;;;3.00;0.80;;;26.50;58.00;;;;;;6328044;28;20218;-66
2021/08/31 10:37:07;;;;;;;2.60;1.40;;;26.60;57.20;;;;;;6323468;28;20320;-66
2021/08/31 10:40:12;;;;;;;3.50;1.73;;;26.40;57.90;;;;;;6322950;28;20229;-68
2021/08/31 10:43:16;;;;;;;4.13;1.70;;;26.30;58.80;;;;;;6322715;28;20283;-65
2021/08/31 10:46:19;;;;;;;2.90;1.80;;;26.20;59.20;;;;;;6323247;28;20240;-66
2021/08/31 10:49:23;;;;;;;5.90;2.07;;;26.20;59.70;;;;;;6322762;28;20226;-65
2021/08/31 10:52:33;;;;;;;5.70;2.00;;;26.00;59.60;;;;;;6322835;28;20226;-65
2021/08/31 10:55:44;;;;;;;3.97;1.83;;;26.30;59.30;;;;;;6322871;28;20308;-65
2021/08/31 10:58:51;;;;;;;2.47;1.60;;;26.70;58.30;;;;;;6322630;28;20245;-67
2021/08/31 11:01:55;;;;;;;5.77;1.80;;;26.40;57.30;;;;;;6333431;28;20674;-66
2021/08/31 11:05:34;;;;;;;3.60;1.47;;;26.30;57.60;;;;;;6331155;28;20233;-66
2021/08/31 11:08:37;;;;;;;1.70;1.23;;;26.40;57.50;;;;;;6331626;28;20322;-66
2021/08/31 11:11:44;;;;;;;3.10;2.80;;;26.00;57.90;;;;;;6334829;28;20225;-66
2021/08/31 11:14:56;;;;;;;3.20;1.80;;;25.70;58.40;;;;;;6331076;28;20217;-66
2021/08/31 11:17:59;;;;;;;2.90;1.10;;;25.70;58.40;;;;;;6334957;28;20586;-65
2021/08/31 11:21:03;;;;;;;2.77;1.17;;;25.90;58.00;;;;;;6333245;28;20217;-65
2021/08/31 11:24:08;;;;;;;2.33;1.77;;;26.60;57.50;;;;;;6330298;28;20225;-65
2021/08/31 11:27:12;;;;;;;2.70;1.27;;;27.40;56.70;;;;;;6334518;28;20235;-65
2021/08/31 11:30:15;;;;;;;1.77;1.10;;;27.70;55.20;;;;;;6334281;28;20221;-65
2021/08/31 11:33:20;;;;;;;2.67;1.00;;;28.10;54.30;;;;;;6333248;28;20285;-65
2021/08/31 11:36:25;;;;;;;1.47;1.10;;;28.10;54.10;;;;;;6335067;28;20229;-67
2021/08/31 11:39:28;;;;;;;3.73;1.10;;;28.10;54.00;;;;;;6326566;28;20229;-64
2021/08/31 11:42:53;;;;;;;3.20;1.33;;;28.00;54.20;;;;;;6334902;28;20612;-66
2021/08/31 11:45:57;;;;;;;1.50;1.00;;;27.80;54.70;;;;;;6332001;28;20565;-65
2021/08/31 11:49:08;;;;;;;2.43;1.33;;;27.80;54.90;;;;;;6333856;28;20228;-66
2021/08/31 11:52:16;;;;;;;1.67;0.80;;;27.90;55.20;;;;;;6331203;28;20233;-65
2021/08/31 11:55:26;;;;;;;2.63;0.87;;;27.70;52.50;;;;;;6339359;28;20666;-66
2021/08/31 11:58:32;;;;;;;0.90;0.53;;;27.50;53.80;;;;;;6340780;27;20587;-66
2021/08/31 12:01:37;;;;;;;1.07;0.73;;;27.40;53.70;;;;;;6335053;28;20221;-66
2021/08/31 12:04:41;;;;;;;1.33;0.90;;;27.20;53.90;;;;;;6334947;28;20222;-66
2021/08/31 12:07:47;;;;;;;2.97;1.37;;;27.20;54.90;;;;;;6337627;28;20268;-66
2021/08/31 12:10:53;;;;;;;2.27;1.00;;;27.20;55.60;;;;;;6339180;28;20226;-65
2021/08/31 12:13:57;;;;;;;1.57;0.97;;;27.00;55.80;;;;;;6336438;28;20875;-64
2021/08/31 12:17:00;;;;;;;3.80;0.90;;;26.80;56.10;;;;;;6336557;28;20228;-66
2021/08/31 12:20:10;;;;;;;2.40;1.37;;;27.10;56.60;;;;;;6340162;28;20218;-66
2021/08/31 12:23:14;;;;;;;1.33;0.90;;;27.30;56.10;;;;;;6335853;28;20221;-65
2021/08/31 12:26:35;;;;;;;1.20;0.93;;;27.20;56.50;;;;;;6347040;27;20232;-68
2021/08/31 12:29:51;;;;;;;0.90;0.60;;;27.10;55.70;;;;;;6347781;28;20220;-68
2021/08/31 12:32:56;;;;;;;0.90;0.60;;;27.00;54.70;;;;;;6309650;28;20660;-65
2021/08/31 12:36:04;;;;;;;1.50;0.60;;;26.90;54.00;;;;;;6304180;28;20222;-64
2021/08/31 12:39:25;;;;;;;0.90;0.40;;;26.80;54.30;;;;;;6301766;28;20230;-66
2021/08/31 12:42:28;;;;;;;1.33;0.40;;;26.80;54.70;;;;;;6294079;28;20227;-64
2021/08/31 12:45:34;;;;;;;0.87;0.57;;;26.70;55.00;;;;;;6323185;28;20218;-65
2021/08/31 12:48:39;;;;;;;0.80;0.40;;;26.80;55.20;;;;;;6307853;28;20233;-67
2021/08/31 12:51:44;;;;;;;1.60;0.43;;;27.30;53.50;;;;;;6300271;28;20237;-66
2021/08/31 12:54:47;;;;;;;0.80;0.70;;;27.40;52.10;;;;;;6300274;28;20214;-65
2021/08/31 12:57:50;;;;;;;1.63;0.50;;;27.60;52.40;;;;;;6300535;28;20241;-65
2021/08/31 13:01:10;;;;;;;1.30;0.50;;;28.00;52.30;;;;;;6300115;28;20226;-67
2021/08/31 13:04:13;;;;;;;1.20;0.60;;;28.20;51.30;;;;;;6305043;28;20236;-66
2021/08/31 13:07:18;;;;;;;0.90;0.50;;;28.40;49.50;;;;;;6325311;28;20240;-67
2021/08/31 13:10:22;;;;;;;0.90;0.30;;;28.20;49.40;;;;;;6325132;28;20686;-66
2021/08/31 13:13:33;;;;;;;1.47;0.53;;;28.00;49.50;;;;;;6323939;28;20241;-66
2021/08/31 13:16:38;;;;;;;0.70;0.40;;;27.90;49.80;;;;;;6300170;28;20250;-66
2021/08/31 13:19:41;;;;;;;1.10;0.70;;;27.80;50.60;;;;;;6299786;28;20226;-65
2021/08/31 13:22:46;;;;;;;4.10;0.80;;;27.80;48.50;;;;;;6328298;27;20228;-64
2021/08/31 13:25:49;;;;;;;3.70;0.90;;;28.10;49.90;;;;;;6349867;27;20247;-66
2021/08/31 13:28:52;;;;;;;1.63;0.57;;;28.20;49.10;;;;;;6350268;28;20233;-64
2021/08/31 13:31:57;;;;;;;3.10;0.50;;;28.00;48.80;;;;;;6337843;28;20273;-65
2021/08/31 13:35:00;;;;;;;0.80;0.50;;;27.70;48.70;;;;;;6324813;28;20240;-65
2021/08/31 13:38:03;;;;;;;2.40;0.40;;;27.70;50.50;;;;;;6321652;28;20265;-65
2021/08/31 13:41:06;;;;;;;0.60;0.30;;;27.50;50.60;;;;;;6299758;28;20692;-64
2021/08/31 13:44:10;;;;;;;0.60;0.27;;;27.20;51.70;;;;;;6294566;28;20260;-66
2021/08/31 13:47:15;;;;;;;0.80;0.30;;;26.80;52.00;;;;;;6299252;28;20801;-65
2021/08/31 13:50:18;;;;;;;1.20;0.57;;;26.50;52.60;;;;;;6299338;28;20233;-64
2021/08/31 13:53:21;;;;;;;0.60;0.33;;;26.40;53.40;;;;;;6298815;28;20256;-63
2021/08/31 13:56:25;;;;;;;0.60;0.20;;;26.30;53.80;;;;;;6298764;28;20234;-64
2021/08/31 13:59:28;;;;;;;0.90;0.37;;;26.20;54.00;;;;;;6298795;28;20238;-64
2021/08/31 14:02:33;;;;;;;0.93;0.33;;;26.10;54.30;;;;;;6299163;28;20226;-64
2021/08/31 14:05:37;;;;;;;0.87;0.30;;;26.10;54.70;;;;;;6298561;28;20319;-63
2021/08/31 14:08:41;;;;;;;0.83;0.30;;;26.10;55.00;;;;;;6307172;28;20252;-65
2021/08/31 14:11:45;;;;;;;0.60;0.27;;;25.80;55.00;;;;;;6323445;28;20226;-65
2021/08/31 14:14:48;;;;;;;0.70;0.47;;;25.80;55.50;;;;;;6310906;28;20230;-66
2021/08/31 14:17:52;;;;;;;2.20;0.40;;;25.60;54.20;;;;;;6297493;28;20718;-64
2021/08/31 14:20:55;;;;;;;1.00;0.27;;;25.40;53.80;;;;;;6298500;28;20243;-65
2021/08/31 14:23:59;;;;;;;1.93;0.70;;;25.50;54.50;;;;;;6315039;28;20222;-65
2021/08/31 14:27:02;;;;;;;0.60;0.20;;;25.40;53.00;;;;;;6323311;28;20238;-67
2021/08/31 14:30:06;;;;;;;0.73;0.53;;;25.20;54.00;;;;;;6340656;28;20232;-66
2021/08/31 14:33:11;;;;;;;3.90;0.70;;;25.00;53.00;;;;;;6326039;27;20238;-68
2021/08/31 14:36:14;;;;;;;1.73;0.37;;;24.80;55.50;;;;;;6322779;28;20226;-66
2021/08/31 14:39:17;;;;;;;0.60;0.20;;;24.80;56.50;;;;;;6309448;28;20230;-65
2021/08/31 14:42:20;;;;;;;0.60;0.30;;;24.80;56.60;;;;;;6297528;28;20223;-68
2021/08/31 14:45:24;;;;;;;0.60;0.40;;;24.70;56.80;;;;;;6297518;28;20234;-66
2021/08/31 14:48:28;;;;;;;0.80;0.20;;;24.70;56.90;;;;;;6297042;28;20587;-66
2021/08/31 14:51:31;;;;;;;0.60;0.20;;;24.60;57.30;;;;;;6292151;28;20226;-66
2021/08/31 14:54:35;;;;;;;0.60;0.30;;;24.60;57.10;;;;;;6297328;28;20222;-65
2021/08/31 14:57:38;;;;;;;0.80;0.40;;;24.40;56.90;;;;;;6297133;28;20261;-69
2021/08/31 15:00:41;;;;;;;0.67;0.30;;;24.30;57.70;;;;;;6297110;28;20693;-69
2021/08/31 15:03:46;;;;;;;0.70;0.30;;;24.10;57.50;;;;;;6297249;28;20303;-67
2021/08/31 15:06:49;;;;;;;0.90;0.50;;;24.00;58.60;;;;;;6297490;28;20223;-67
2021/08/31 15:09:53;;;;;;;1.70;0.30;;;24.10;59.00;;;;;;6316053;28;20226;-68
2021/08/31 15:12:56;;;;;;;0.73;0.20;;;24.00;58.90;;;;;;6322406;28;20230;-67
2021/08/31 15:15:59;;;;;;;0.70;0.50;;;23.90;59.10;;;;;;6321064;28;20226;-66
2021/08/31 15:19:05;;;;;;;1.23;0.23;;;23.80;59.30;;;;;;6320668;28;20237;-69
2021/08/31 15:22:08;;;;;;;0.60;0.30;;;23.70;59.10;;;;;;6328051;28;20233;-69
2021/08/31 15:25:12;;;;;;;0.53;0.23;;;23.50;59.50;;;;;;6337099;28;20232;-70
2021/08/31 15:28:15;;;;;;;0.70;0.30;;;23.30;60.70;;;;;;6322141;28;20222;-69
2021/08/31 15:31:18;;;;;;;0.60;0.23;;;23.10;60.60;;;;;;6334527;28;20762;-69
2021/08/31 15:34:23;;;;;;;2.00;0.20;;;23.00;61.20;;;;;;6341467;27;20264;-69
2021/08/31 15:37:26;;;;;;;0.50;0.23;;;22.90;61.40;;;;;;6333309;28;20598;-69
2021/08/31 15:40:30;;;;;;;0.70;0.40;;;22.80;62.00;;;;;;6334023;28;20571;-70
2021/08/31 15:43:33;;;;;;;0.60;0.30;;;22.70;62.60;;;;;;6331732;28;20226;-69
2021/08/31 15:46:37;;;;;;;1.30;0.50;;;22.60;62.60;;;;;;6332246;28;20270;-69
2021/08/31 15:49:41;;;;;;;0.90;0.37;;;22.50;63.30;;;;;;6328346;28;20672;-68
2021/08/31 15:52:44;;;;;;;0.67;0.40;;;22.40;63.90;;;;;;6316588;28;20674;-68
2021/08/31 15:56:09;;;;;;;0.60;0.40;;;22.40;64.30;;;;;;6320902;28;20753;-68
2021/08/31 15:59:12;;;;;;;0.60;0.40;;;22.40;64.70;;;;;;6323004;28;20269;-69